sensor_id;sensor_type;location;lat;lon;timestamp;pressure;altitude;pressure_sealevel;temperature;humidity
22000;BME280;11164;48.818;2.322;2023-10-31T00:00:28;99138.75;;;11.78;53.83
22000;BME280;11164;48.818;2.322;2023-10-31T00:02:54;99141.81;;;11.70;53.79
22000;BME280;11164;48.818;2.322;2023-10-31T00:05:19;99134.59;;;11.59;53.94
22000;BME280;11164;48.818;2.322;2023-10-31T00:07:44;99137.09;;;11.49;54.05
22000;BME280;11164;48.818;2.322;2023-10-31T00:10:09;99132.50;;;11.49;54.14
22000;BME280;11164;48.818;2.322;2023-10-31T00:12:35;99118.59;;;11.40;54.00
22000;BME280;11164;48.818;2.322;2023-10-31T00:15:00;99135.66;;;11.58;53.82
22000;BME280;11164;48.818;2.322;2023-10-31T00:17:26;99131.06;;;11.58;53.76
22000;BME280;11164;48.818;2.322;2023-10-31T00:19:51;99144.09;;;11.61;53.69
22000;BME280;11164;48.818;2.322;2023-10-31T00:22:17;99142.59;;;11.54;53.79
22000;BME280;11164;48.818;2.322;2023-10-31T00:24:42;99142.50;;;11.49;53.81
22000;BME280;11164;48.818;2.322;2023-10-31T00:27:08;99136.50;;;11.47;53.84
22000;BME280;11164;48.818;2.322;2023-10-31T00:29:34;99137.72;;;11.39;53.96
22000;BME280;11164;48.818;2.322;2023-10-31T00:31:59;99143.34;;;11.37;54.03
22000;BME280;11164;48.818;2.322;2023-10-31T00:34:24;99137.72;;;11.39;53.86
22000;BME280;11164;48.818;2.322;2023-10-31T00:36:49;99141.22;;;11.39;53.91
22000;BME280;11164;48.818;2.322;2023-10-31T00:39:15;99139.63;;;11.27;53.82
22000;BME280;11164;48.818;2.322;2023-10-31T00:41:44;99140.47;;;11.15;54.20
22000;BME280;11164;48.818;2.322;2023-10-31T00:44:10;99135.13;;;11.03;54.61
22000;BME280;11164;48.818;2.322;2023-10-31T00:46:36;99142.00;;;11.11;54.40
22000;BME280;11164;48.818;2.322;2023-10-31T00:49:01;99133.91;;;11.11;54.15
22000;BME280;11164;48.818;2.322;2023-10-31T00:51:26;99137.41;;;11.23;53.95
22000;BME280;11164;48.818;2.322;2023-10-31T00:53:52;99154.50;;;11.29;53.67
22000;BME280;11164;48.818;2.322;2023-10-31T00:56:17;99155.38;;;11.18;54.14
22000;BME280;11164;48.818;2.322;2023-10-31T00:58:42;99157.25;;;11.17;54.01
22000;BME280;11164;48.818;2.322;2023-10-31T01:01:08;99153.38;;;11.13;54.12
22000;BME280;11164;48.818;2.322;2023-10-31T01:03:33;99148.72;;;11.09;54.07
22000;BME280;11164;48.818;2.322;2023-10-31T01:05:58;99159.50;;;11.09;54.02
22000;BME280;11164;48.818;2.322;2023-10-31T01:08:24;99164.53;;;11.05;53.82
22000;BME280;11164;48.818;2.322;2023-10-31T01:10:49;99159.50;;;10.97;54.07
22000;BME280;11164;48.818;2.322;2023-10-31T01:13:14;99161.38;;;10.96;54.20
22000;BME280;11164;48.818;2.322;2023-10-31T01:15:40;99158.94;;;10.95;54.08
22000;BME280;11164;48.818;2.322;2023-10-31T01:18:05;99163.47;;;10.94;54.00
22000;BME280;11164;48.818;2.322;2023-10-31T01:20:31;99165.72;;;10.97;53.83
22000;BME280;11164;48.818;2.322;2023-10-31T01:22:56;99154.81;;;10.92;53.99
22000;BME280;11164;48.818;2.322;2023-10-31T01:25:22;99152.25;;;10.85;54.07
22000;BME280;11164;48.818;2.322;2023-10-31T01:27:47;99156.47;;;10.81;54.03
22000;BME280;11164;48.818;2.322;2023-10-31T01:30:13;99153.19;;;10.79;54.12
22000;BME280;11164;48.818;2.322;2023-10-31T01:32:39;99164.34;;;10.83;54.15
22000;BME280;11164;48.818;2.322;2023-10-31T01:35:04;99163.03;;;10.85;53.99
22000;BME280;11164;48.818;2.322;2023-10-31T01:37:30;99165.84;;;10.91;53.71
22000;BME280;11164;48.818;2.322;2023-10-31T01:39:55;99164.34;;;10.83;54.01
22000;BME280;11164;48.818;2.322;2023-10-31T01:42:20;99166.69;;;10.79;53.95
22000;BME280;11164;48.818;2.322;2023-10-31T01:44:46;99168.78;;;10.77;54.25
22000;BME280;11164;48.818;2.322;2023-10-31T01:47:11;99173.81;;;10.74;54.01
22000;BME280;11164;48.818;2.322;2023-10-31T01:49:36;99167.72;;;10.66;54.26
22000;BME280;11164;48.818;2.322;2023-10-31T01:52:04;99175.34;;;10.69;54.19
22000;BME280;11164;48.818;2.322;2023-10-31T01:54:29;99181.06;;;10.61;54.19
22000;BME280;11164;48.818;2.322;2023-10-31T01:56:58;99183.25;;;10.53;54.60
22000;BME280;11164;48.818;2.322;2023-10-31T01:59:25;99185.97;;;10.53;54.30
22000;BME280;11164;48.818;2.322;2023-10-31T02:01:52;99184.78;;;10.48;54.43
22000;BME280;11164;48.818;2.322;2023-10-31T02:04:17;99186.31;;;10.44;54.70
22000;BME280;11164;48.818;2.322;2023-10-31T02:06:42;99178.69;;;10.41;54.60
22000;BME280;11164;48.818;2.322;2023-10-31T02:09:08;99192.53;;;10.45;54.65
22000;BME280;11164;48.818;2.322;2023-10-31T02:11:33;99188.41;;;10.42;54.61
22000;BME280;11164;48.818;2.322;2023-10-31T02:13:59;99189.03;;;10.44;54.97
22000;BME280;11164;48.818;2.322;2023-10-31T02:16:24;99187.38;;;10.55;54.67
22000;BME280;11164;48.818;2.322;2023-10-31T02:18:50;99193.97;;;10.59;54.66
22000;BME280;11164;48.818;2.322;2023-10-31T02:21:19;99182.22;;;10.54;54.88
22000;BME280;11164;48.818;2.322;2023-10-31T02:23:56;99188.53;;;10.47;55.38
22000;BME280;11164;48.818;2.322;2023-10-31T02:26:22;99196.28;;;10.56;55.42
22000;BME280;11164;48.818;2.322;2023-10-31T02:28:47;99203.31;;;10.57;55.23
22000;BME280;11164;48.818;2.322;2023-10-31T02:31:12;99198.22;;;10.67;54.85
22000;BME280;11164;48.818;2.322;2023-10-31T02:33:38;99205.69;;;10.77;54.65
22000;BME280;11164;48.818;2.322;2023-10-31T02:36:03;99201.59;;;10.74;54.88
22000;BME280;11164;48.818;2.322;2023-10-31T02:38:28;99196.44;;;10.73;55.34
22000;BME280;11164;48.818;2.322;2023-10-31T02:40:54;99205.69;;;10.77;54.93
22000;BME280;11164;48.818;2.322;2023-10-31T02:43:19;99203.69;;;10.96;54.64
22000;BME280;11164;48.818;2.322;2023-10-31T02:45:44;99211.78;;;11.07;54.38
22000;BME280;11164;48.818;2.322;2023-10-31T02:48:10;99212.94;;;11.12;54.44
22000;BME280;11164;48.818;2.322;2023-10-31T02:50:35;99212.16;;;11.11;54.65
22000;BME280;11164;48.818;2.322;2023-10-31T02:53:02;99202.50;;;11.15;54.53
22000;BME280;11164;48.818;2.322;2023-10-31T02:55:27;99200.06;;;11.14;54.65
22000;BME280;11164;48.818;2.322;2023-10-31T02:57:52;99208.63;;;11.11;54.83
22000;BME280;11164;48.818;2.322;2023-10-31T03:00:18;99204.75;;;11.18;54.77
22000;BME280;11164;48.818;2.322;2023-10-31T03:02:43;99199.91;;;11.20;54.79
22000;BME280;11164;48.818;2.322;2023-10-31T03:05:08;99195.94;;;11.23;54.78
22000;BME280;11164;48.818;2.322;2023-10-31T03:07:33;99206.84;;;11.28;54.78
22000;BME280;11164;48.818;2.322;2023-10-31T03:09:59;99204.72;;;11.30;54.78
22000;BME280;11164;48.818;2.322;2023-10-31T03:12:24;99198.88;;;11.21;54.90
22000;BME280;11164;48.818;2.322;2023-10-31T03:14:49;99211.56;;;11.21;54.92
22000;BME280;11164;48.818;2.322;2023-10-31T03:17:15;99207.19;;;11.32;54.88
22000;BME280;11164;48.818;2.322;2023-10-31T03:19:40;99218.66;;;11.39;54.73
22000;BME280;11164;48.818;2.322;2023-10-31T03:22:05;99224.19;;;11.32;54.90
22000;BME280;11164;48.818;2.322;2023-10-31T03:24:31;99229.81;;;11.19;55.25
22000;BME280;11164;48.818;2.322;2023-10-31T03:26:58;99228.44;;;11.16;55.45
22000;BME280;11164;48.818;2.322;2023-10-31T03:29:23;99233.50;;;11.13;55.59
22000;BME280;11164;48.818;2.322;2023-10-31T03:31:48;99236.66;;;11.10;55.65
22000;BME280;11164;48.818;2.322;2023-10-31T03:34:14;99239.81;;;11.06;55.85
22000;BME280;11164;48.818;2.322;2023-10-31T03:36:39;99239.00;;;11.06;55.83
22000;BME280;11164;48.818;2.322;2023-10-31T03:39:05;99235.00;;;11.20;55.25
22000;BME280;11164;48.818;2.322;2023-10-31T03:41:30;99230.91;;;11.30;55.15
22000;BME280;11164;48.818;2.322;2023-10-31T03:43:55;99237.94;;;11.19;55.50
22000;BME280;11164;48.818;2.322;2023-10-31T03:46:21;99242.50;;;11.06;56.08
22000;BME280;11164;48.818;2.322;2023-10-31T03:48:46;99242.03;;;11.10;55.93
22000;BME280;11164;48.818;2.322;2023-10-31T03:51:11;99237.81;;;11.25;55.47
22000;BME280;11164;48.818;2.322;2023-10-31T03:53:36;99241.66;;;11.41;55.18
22000;BME280;11164;48.818;2.322;2023-10-31T03:56:02;99230.44;;;11.21;55.54
22000;BME280;11164;48.818;2.322;2023-10-31T03:58:28;99233.72;;;11.23;55.82
22000;BME280;11164;48.818;2.322;2023-10-31T04:00:54;99237.94;;;11.19;55.86
22000;BME280;11164;48.818;2.322;2023-10-31T04:03:19;99236.31;;;11.06;56.31
22000;BME280;11164;48.818;2.322;2023-10-31T04:05:44;99245.56;;;11.22;55.89
22000;BME280;11164;48.818;2.322;2023-10-31T04:08:11;99234.75;;;11.22;55.85
22000;BME280;11164;48.818;2.322;2023-10-31T04:10:36;99249.56;;;11.19;55.90
22000;BME280;11164;48.818;2.322;2023-10-31T04:13:02;99250.03;;;11.16;56.25
22000;BME280;11164;48.818;2.322;2023-10-31T04:15:27;99258.00;;;11.11;56.33
22000;BME280;11164;48.818;2.322;2023-10-31T04:17:53;99260.22;;;11.14;56.16
22000;BME280;11164;48.818;2.322;2023-10-31T04:20:18;99264.66;;;11.44;55.46
22000;BME280;11164;48.818;2.322;2023-10-31T04:22:43;99261.94;;;11.56;55.28
22000;BME280;11164;48.818;2.322;2023-10-31T04:25:09;99267.13;;;11.46;55.35
22000;BME280;11164;48.818;2.322;2023-10-31T04:27:34;99267.25;;;11.39;55.63
22000;BME280;11164;48.818;2.322;2023-10-31T04:29:59;99265.28;;;11.22;56.22
22000;BME280;11164;48.818;2.322;2023-10-31T04:32:25;99269.25;;;11.20;56.19
22000;BME280;11164;48.818;2.322;2023-10-31T04:34:50;99269.94;;;11.15;56.33
22000;BME280;11164;48.818;2.322;2023-10-31T04:37:15;99270.28;;;11.19;56.63
22000;BME280;11164;48.818;2.322;2023-10-31T04:39:41;99275.56;;;11.25;56.28
22000;BME280;11164;48.818;2.322;2023-10-31T04:42:06;99271.50;;;11.35;55.82
22000;BME280;11164;48.818;2.322;2023-10-31T04:44:31;99278.84;;;11.39;55.63
22000;BME280;11164;48.818;2.322;2023-10-31T04:46:56;99288.03;;;11.50;55.46
22000;BME280;11164;48.818;2.322;2023-10-31T04:49:22;99288.38;;;11.42;55.87
22000;BME280;11164;48.818;2.322;2023-10-31T04:51:48;99275.22;;;11.34;56.02
22000;BME280;11164;48.818;2.322;2023-10-31T04:54:13;99286.59;;;11.48;55.69
22000;BME280;11164;48.818;2.322;2023-10-31T04:56:38;99291.88;;;11.54;55.58
22000;BME280;11164;48.818;2.322;2023-10-31T04:59:04;99295.63;;;11.53;55.55
22000;BME280;11164;48.818;2.322;2023-10-31T05:01:29;99288.09;;;11.55;55.53
22000;BME280;11164;48.818;2.322;2023-10-31T05:03:54;99299.88;;;11.49;55.94
22000;BME280;11164;48.818;2.322;2023-10-31T05:06:20;99295.50;;;11.60;55.64
22000;BME280;11164;48.818;2.322;2023-10-31T05:08:46;99299.13;;;11.66;55.66
22000;BME280;11164;48.818;2.322;2023-10-31T05:11:12;99297.97;;;11.61;55.47
22000;BME280;11164;48.818;2.322;2023-10-31T05:13:38;99298.44;;;11.58;55.95
22000;BME280;11164;48.818;2.322;2023-10-31T05:16:04;99292.53;;;11.73;55.24
22000;BME280;11164;48.818;2.322;2023-10-31T05:18:29;99290.78;;;11.79;55.16
22000;BME280;11164;48.818;2.322;2023-10-31T05:20:54;99291.63;;;11.68;55.57
22000;BME280;11164;48.818;2.322;2023-10-31T05:23:20;99313.22;;;11.68;55.87
22000;BME280;11164;48.818;2.322;2023-10-31T05:25:45;99300.31;;;11.70;55.83
22000;BME280;11164;48.818;2.322;2023-10-31T05:28:10;99285.38;;;11.67;55.53
22000;BME280;11164;48.818;2.322;2023-10-31T05:30:36;99297.97;;;11.85;55.40
22000;BME280;11164;48.818;2.322;2023-10-31T05:33:02;99297.63;;;11.81;55.54
22000;BME280;11164;48.818;2.322;2023-10-31T05:35:27;99303.34;;;11.85;55.73
22000;BME280;11164;48.818;2.322;2023-10-31T05:37:53;99303.81;;;11.82;55.68
22000;BME280;11164;48.818;2.322;2023-10-31T05:40:18;99299.47;;;11.81;55.72
22000;BME280;11164;48.818;2.322;2023-10-31T05:42:47;99311.34;;;11.80;55.88
22000;BME280;11164;48.818;2.322;2023-10-31T05:45:12;99303.25;;;11.68;55.74
22000;BME280;11164;48.818;2.322;2023-10-31T05:47:38;99313.56;;;11.83;55.84
22000;BME280;11164;48.818;2.322;2023-10-31T05:50:04;99325.66;;;11.92;55.51
22000;BME280;11164;48.818;2.322;2023-10-31T05:52:30;99322.94;;;11.92;55.78
22000;BME280;11164;48.818;2.322;2023-10-31T05:54:57;99315.06;;;11.91;55.37
22000;BME280;11164;48.818;2.322;2023-10-31T05:57:23;99320.94;;;11.88;55.64
22000;BME280;11164;48.818;2.322;2023-10-31T05:59:48;99325.88;;;11.91;55.70
22000;BME280;11164;48.818;2.322;2023-10-31T06:02:14;99319.41;;;11.92;55.61
22000;BME280;11164;48.818;2.322;2023-10-31T06:04:39;99321.91;;;11.81;55.97
22000;BME280;11164;48.818;2.322;2023-10-31T06:07:06;99322.59;;;11.89;55.73
22000;BME280;11164;48.818;2.322;2023-10-31T06:09:31;99319.63;;;12.02;55.31
22000;BME280;11164;48.818;2.322;2023-10-31T06:11:58;99328.06;;;12.06;55.28
22000;BME280;11164;48.818;2.322;2023-10-31T06:14:23;99328.16;;;12.11;55.28
22000;BME280;11164;48.818;2.322;2023-10-31T06:16:49;99327.22;;;12.17;55.13
22000;BME280;11164;48.818;2.322;2023-10-31T06:19:14;99327.56;;;12.21;55.10
22000;BME280;11164;48.818;2.322;2023-10-31T06:21:39;99324.16;;;12.13;55.25
22000;BME280;11164;48.818;2.322;2023-10-31T06:24:05;99326.75;;;12.20;55.09
22000;BME280;11164;48.818;2.322;2023-10-31T06:26:31;99331.66;;;12.23;55.14
22000;BME280;11164;48.818;2.322;2023-10-31T06:28:56;99347.38;;;12.26;55.01
22000;BME280;11164;48.818;2.322;2023-10-31T06:31:21;99348.47;;;12.25;55.32
22000;BME280;11164;48.818;2.322;2023-10-31T06:33:47;99346.53;;;12.37;55.08
22000;BME280;11164;48.818;2.322;2023-10-31T06:36:12;99347.78;;;12.47;54.95
22000;BME280;11164;48.818;2.322;2023-10-31T06:38:37;99346.63;;;12.43;54.96
22000;BME280;11164;48.818;2.322;2023-10-31T06:41:03;99348.66;;;12.35;55.25
22000;BME280;11164;48.818;2.322;2023-10-31T06:43:29;99352.13;;;12.48;55.07
22000;BME280;11164;48.818;2.322;2023-10-31T06:45:54;99359.50;;;12.52;54.80
22000;BME280;11164;48.818;2.322;2023-10-31T06:48:20;99359.31;;;12.42;55.09
22000;BME280;11164;48.818;2.322;2023-10-31T06:50:45;99358.69;;;12.52;54.94
22000;BME280;11164;48.818;2.322;2023-10-31T06:53:10;99351.38;;;12.52;54.78
22000;BME280;11164;48.818;2.322;2023-10-31T06:55:36;99365.94;;;12.63;54.77
22000;BME280;11164;48.818;2.322;2023-10-31T06:58:01;99360.78;;;12.62;55.03
22000;BME280;11164;48.818;2.322;2023-10-31T07:00:27;99358.06;;;12.62;54.99
22000;BME280;11164;48.818;2.322;2023-10-31T07:02:53;99369.66;;;12.74;54.79
22000;BME280;11164;48.818;2.322;2023-10-31T07:05:18;99368.97;;;12.67;54.96
22000;BME280;11164;48.818;2.322;2023-10-31T07:07:45;99358.63;;;12.64;54.99
22000;BME280;11164;48.818;2.322;2023-10-31T07:10:11;99366.31;;;12.84;54.71
22000;BME280;11164;48.818;2.322;2023-10-31T07:12:36;99374.44;;;12.84;54.66
22000;BME280;11164;48.818;2.322;2023-10-31T07:15:02;99382.63;;;12.89;54.61
22000;BME280;11164;48.818;2.322;2023-10-31T07:17:27;99392.91;;;13.04;54.23
22000;BME280;11164;48.818;2.322;2023-10-31T07:19:52;99397.59;;;13.08;54.12
22000;BME280;11164;48.818;2.322;2023-10-31T07:22:18;99390.38;;;13.14;53.98
22000;BME280;11164;48.818;2.322;2023-10-31T07:24:43;99389.97;;;13.05;54.19
22000;BME280;11164;48.818;2.322;2023-10-31T07:27:09;99389.72;;;13.07;54.17
22000;BME280;11164;48.818;2.322;2023-10-31T07:29:34;99392.53;;;13.12;54.22
22000;BME280;11164;48.818;2.322;2023-10-31T07:32:00;99400.56;;;13.07;54.49
22000;BME280;11164;48.818;2.322;2023-10-31T07:34:26;99397.59;;;13.08;54.55
22000;BME280;11164;48.818;2.322;2023-10-31T07:36:51;99404.78;;;12.86;54.90
22000;BME280;11164;48.818;2.322;2023-10-31T07:39:16;99411.69;;;12.82;55.14
22000;BME280;11164;48.818;2.322;2023-10-31T07:41:42;99417.81;;;12.89;55.10
22000;BME280;11164;48.818;2.322;2023-10-31T07:44:07;99409.53;;;12.96;55.01
22000;BME280;11164;48.818;2.322;2023-10-31T07:46:33;99411.38;;;13.07;54.67
22000;BME280;11164;48.818;2.322;2023-10-31T07:48:58;99421.97;;;13.08;54.79
22000;BME280;11164;48.818;2.322;2023-10-31T07:51:23;99426.78;;;13.06;54.83
22000;BME280;11164;48.818;2.322;2023-10-31T07:53:48;99426.44;;;13.03;54.93
22000;BME280;11164;48.818;2.322;2023-10-31T07:56:15;99431.06;;;13.19;54.45
22000;BME280;11164;48.818;2.322;2023-10-31T07:58:41;99425.00;;;13.12;54.44
22000;BME280;11164;48.818;2.322;2023-10-31T08:01:06;99436.88;;;13.11;54.89
22000;BME280;11164;48.818;2.322;2023-10-31T08:03:35;99437.53;;;13.18;54.76
22000;BME280;11164;48.818;2.322;2023-10-31T08:06:06;99438.44;;;13.07;54.87
22000;BME280;11164;48.818;2.322;2023-10-31T08:08:32;99444.13;;;12.93;54.96
22000;BME280;11164;48.818;2.322;2023-10-31T08:10:57;99435.31;;;12.98;55.31
22000;BME280;11164;48.818;2.322;2023-10-31T08:13:24;99432.22;;;13.23;54.87
22000;BME280;11164;48.818;2.322;2023-10-31T08:15:49;99429.44;;;13.35;54.57
22000;BME280;11164;48.818;2.322;2023-10-31T08:18:15;99437.72;;;13.45;54.50
22000;BME280;11164;48.818;2.322;2023-10-31T08:20:40;99453.25;;;13.50;54.52
22000;BME280;11164;48.818;2.322;2023-10-31T08:23:05;99450.94;;;13.59;54.21
22000;BME280;11164;48.818;2.322;2023-10-31T08:25:30;99457.97;;;13.43;54.63
22000;BME280;11164;48.818;2.322;2023-10-31T08:27:56;99464.06;;;13.04;54.98
22000;BME280;11164;48.818;2.322;2023-10-31T08:30:22;99453.91;;;12.94;55.40
22000;BME280;11164;48.818;2.322;2023-10-31T08:32:47;99448.50;;;13.11;55.07
22000;BME280;11164;48.818;2.322;2023-10-31T08:35:12;99458.56;;;12.99;55.07
22000;BME280;11164;48.818;2.322;2023-10-31T08:37:38;99478.41;;;12.76;55.66
22000;BME280;11164;48.818;2.322;2023-10-31T08:40:05;99467.06;;;12.50;56.49
22000;BME280;11164;48.818;2.322;2023-10-31T08:42:30;99482.31;;;12.68;55.98
22000;BME280;11164;48.818;2.322;2023-10-31T08:44:56;99485.19;;;12.79;55.86
22000;BME280;11164;48.818;2.322;2023-10-31T08:47:21;99487.19;;;12.95;55.51
22000;BME280;11164;48.818;2.322;2023-10-31T08:49:46;99489.91;;;13.24;55.03
22000;BME280;11164;48.818;2.322;2023-10-31T08:52:12;99491.56;;;13.59;54.28
22000;BME280;11164;48.818;2.322;2023-10-31T08:54:37;99492.44;;;13.47;54.26
22000;BME280;11164;48.818;2.322;2023-10-31T08:57:02;99488.75;;;13.37;54.79
22000;BME280;11164;48.818;2.322;2023-10-31T08:59:28;99488.69;;;13.48;54.84
22000;BME280;11164;48.818;2.322;2023-10-31T09:01:53;99492.88;;;13.56;54.89
22000;BME280;11164;48.818;2.322;2023-10-31T09:04:18;99501.16;;;13.66;54.63
22000;BME280;11164;48.818;2.322;2023-10-31T09:06:44;99500.63;;;13.36;54.93
22000;BME280;11164;48.818;2.322;2023-10-31T09:09:09;99504.38;;;13.18;55.59
22000;BME280;11164;48.818;2.322;2023-10-31T09:11:35;99518.69;;;13.30;55.25
22000;BME280;11164;48.818;2.322;2023-10-31T09:14:01;99508.75;;;13.36;55.27
22000;BME280;11164;48.818;2.322;2023-10-31T09:16:26;99518.47;;;13.48;54.64
22000;BME280;11164;48.818;2.322;2023-10-31T09:18:51;99521.19;;;13.48;54.87
22000;BME280;11164;48.818;2.322;2023-10-31T09:21:17;99515.81;;;13.37;55.00
22000;BME280;11164;48.818;2.322;2023-10-31T09:23:42;99528.50;;;13.65;54.67
22000;BME280;11164;48.818;2.322;2023-10-31T09:26:08;99524.94;;;13.47;55.07
22000;BME280;11164;48.818;2.322;2023-10-31T09:28:35;99538.00;;;13.05;55.42
22000;BME280;11164;48.818;2.322;2023-10-31T09:31:01;99541.50;;;13.05;55.65
22000;BME280;11164;48.818;2.322;2023-10-31T09:33:27;99534.72;;;13.20;55.61
22000;BME280;11164;48.818;2.322;2023-10-31T09:35:52;99543.88;;;13.02;55.72
22000;BME280;11164;48.818;2.322;2023-10-31T09:38:17;99544.06;;;13.12;55.43
22000;BME280;11164;48.818;2.322;2023-10-31T09:40:43;99558.81;;;13.33;55.23
22000;BME280;11164;48.818;2.322;2023-10-31T09:43:09;99558.31;;;13.07;55.58
22000;BME280;11164;48.818;2.322;2023-10-31T09:45:34;99562.47;;;13.27;55.03
22000;BME280;11164;48.818;2.322;2023-10-31T09:48:00;99570.03;;;13.25;55.02
22000;BME280;11164;48.818;2.322;2023-10-31T09:50:26;99569.72;;;13.09;55.45
22000;BME280;11164;48.818;2.322;2023-10-31T09:52:52;99568.81;;;13.04;55.32
22000;BME280;11164;48.818;2.322;2023-10-31T09:55:18;99580.06;;;13.12;55.24
22000;BME280;11164;48.818;2.322;2023-10-31T09:57:44;99579.38;;;13.34;54.95
22000;BME280;11164;48.818;2.322;2023-10-31T10:00:10;99573.97;;;13.34;54.60
22000;BME280;11164;48.818;2.322;2023-10-31T10:02:37;99580.19;;;13.46;54.64
22000;BME280;11164;48.818;2.322;2023-10-31T10:05:03;99583.06;;;13.57;54.44
22000;BME280;11164;48.818;2.322;2023-10-31T10:07:29;99572.72;;;13.70;54.51
22000;BME280;11164;48.818;2.322;2023-10-31T10:09:55;99594.41;;;13.70;54.26
22000;BME280;11164;48.818;2.322;2023-10-31T10:12:21;99593.41;;;13.88;54.31
22000;BME280;11164;48.818;2.322;2023-10-31T10:14:47;99599.81;;;13.99;53.87
22000;BME280;11164;48.818;2.322;2023-10-31T10:17:23;99595.34;;;13.47;52.42
22000;BME280;11164;48.818;2.322;2023-10-31T10:20:05;99573.69;;;13.93;53.53
22000;BME280;11164;48.818;2.322;2023-10-31T10:22:31;99598.22;;;14.54;52.90
22000;BME280;11164;48.818;2.322;2023-10-31T10:24:57;99594.53;;;14.43;52.81
22000;BME280;11164;48.818;2.322;2023-10-31T10:27:22;99594.06;;;14.13;53.70
22000;BME280;11164;48.818;2.322;2023-10-31T10:29:53;99593.75;;;14.09;52.58
22000;BME280;11164;48.818;2.322;2023-10-31T10:32:18;99586.66;;;14.42;53.16
22000;BME280;11164;48.818;2.322;2023-10-31T10:34:45;99594.31;;;14.67;51.88
22000;BME280;11164;48.818;2.322;2023-10-31T10:37:10;99598.47;;;14.92;52.64
22000;BME280;11164;48.818;2.322;2023-10-31T10:39:36;99617.72;;;14.90;52.41
22000;BME280;11164;48.818;2.322;2023-10-31T10:42:09;99611.38;;;15.02;51.54
22000;BME280;11164;48.818;2.322;2023-10-31T10:44:35;99613.44;;;15.16;52.33
22000;BME280;11164;48.818;2.322;2023-10-31T10:47:06;99613.25;;;15.23;50.27
22000;BME280;11164;48.818;2.322;2023-10-31T10:49:36;99633.38;;;14.66;51.09
22000;BME280;11164;48.818;2.322;2023-10-31T10:52:13;99609.81;;;14.33;51.54
22000;BME280;11164;48.818;2.322;2023-10-31T10:54:50;99632.75;;;14.42;52.12
22000;BME280;11164;48.818;2.322;2023-10-31T11:00:08;99634.06;;;14.39;53.53
22000;BME280;11164;48.818;2.322;2023-10-31T11:02:36;99634.38;;;14.26;53.58
22000;BME280;11164;48.818;2.322;2023-10-31T11:05:05;99642.75;;;14.92;52.68
22000;BME280;11164;48.818;2.322;2023-10-31T11:07:33;99637.06;;;15.38;52.21
22000;BME280;11164;48.818;2.322;2023-10-31T11:09:59;99644.59;;;15.80;51.55
22000;BME280;11164;48.818;2.322;2023-10-31T11:12:29;99641.47;;;15.93;51.51
22000;BME280;11164;48.818;2.322;2023-10-31T11:14:57;99633.31;;;15.71;52.23
22000;BME280;11164;48.818;2.322;2023-10-31T11:19:55;99643.47;;;16.03;51.48
22000;BME280;11164;48.818;2.322;2023-10-31T11:22:21;99639.97;;;16.45;51.04
22000;BME280;11164;48.818;2.322;2023-10-31T11:24:48;99632.44;;;17.00;49.71
22000;BME280;11164;48.818;2.322;2023-10-31T11:27:14;99640.28;;;16.92;50.38
22000;BME280;11164;48.818;2.322;2023-10-31T11:29:39;99644.22;;;16.63;50.06
22000;BME280;11164;48.818;2.322;2023-10-31T11:32:11;99642.00;;;16.23;51.71
22000;BME280;11164;48.818;2.322;2023-10-31T11:34:38;99643.41;;;15.98;51.46
22000;BME280;11164;48.818;2.322;2023-10-31T11:37:26;99659.31;;;15.62;50.31
22000;BME280;11164;48.818;2.322;2023-10-31T11:42:42;99659.28;;;15.35;52.30
22000;BME280;11164;48.818;2.322;2023-10-31T11:45:08;99652.50;;;15.60;51.72
22000;BME280;11164;48.818;2.322;2023-10-31T11:47:46;99661.84;;;15.69;46.83
22000;BME280;11164;48.818;2.322;2023-10-31T11:50:12;99654.75;;;15.90;51.07
22000;BME280;11164;48.818;2.322;2023-10-31T11:52:38;99655.91;;;15.99;51.12
22000;BME280;11164;48.818;2.322;2023-10-31T11:55:08;99652.22;;;16.10;50.98
22000;BME280;11164;48.818;2.322;2023-10-31T11:57:34;99649.84;;;15.65;51.76
22000;BME280;11164;48.818;2.322;2023-10-31T11:59:59;99650.75;;;16.30;50.56
22000;BME280;11164;48.818;2.322;2023-10-31T12:02:25;99654.25;;;16.25;50.69
22000;BME280;11164;48.818;2.322;2023-10-31T12:04:50;99657.94;;;16.46;50.46
22000;BME280;11164;48.818;2.322;2023-10-31T12:07:18;99655.41;;;16.35;50.35
22000;BME280;11164;48.818;2.322;2023-10-31T12:09:47;99645.69;;;16.44;49.64
22000;BME280;11164;48.818;2.322;2023-10-31T12:12:12;99648.25;;;16.61;50.19
22000;BME280;11164;48.818;2.322;2023-10-31T12:14:38;99647.84;;;16.42;50.01
22000;BME280;11164;48.818;2.322;2023-10-31T12:17:04;99653.25;;;16.74;49.47
22000;BME280;11164;48.818;2.322;2023-10-31T12:19:30;99652.13;;;17.13;49.06
22000;BME280;11164;48.818;2.322;2023-10-31T12:21:55;99655.53;;;16.93;49.42
22000;BME280;11164;48.818;2.322;2023-10-31T12:24:22;99659.03;;;16.83;49.33
22000;BME280;11164;48.818;2.322;2023-10-31T12:26:47;99660.34;;;16.43;50.08
22000;BME280;11164;48.818;2.322;2023-10-31T12:29:20;99662.00;;;16.44;49.57
22000;BME280;11164;48.818;2.322;2023-10-31T12:31:53;99658.78;;;16.90;47.88
22000;BME280;11164;48.818;2.322;2023-10-31T12:34:20;99662.16;;;17.07;49.45
22000;BME280;11164;48.818;2.322;2023-10-31T12:36:47;99671.25;;;17.33;48.91
22000;BME280;11164;48.818;2.322;2023-10-31T12:39:14;99668.72;;;17.90;48.15
22000;BME280;11164;48.818;2.322;2023-10-31T12:41:41;99665.72;;;17.91;48.47
22000;BME280;11164;48.818;2.322;2023-10-31T12:44:07;99665.44;;;17.77;48.66
22000;BME280;11164;48.818;2.322;2023-10-31T12:46:39;99674.16;;;17.74;48.73
22000;BME280;11164;48.818;2.322;2023-10-31T12:49:10;99675.50;;;17.67;47.63
22000;BME280;11164;48.818;2.322;2023-10-31T12:51:36;99667.28;;;17.51;48.75
22000;BME280;11164;48.818;2.322;2023-10-31T12:54:01;99673.72;;;17.40;48.51
22000;BME280;11164;48.818;2.322;2023-10-31T12:56:40;99665.19;;;18.10;45.22
22000;BME280;11164;48.818;2.322;2023-10-31T12:59:09;99662.97;;;18.99;44.96
22000;BME280;11164;48.818;2.322;2023-10-31T13:01:43;99672.63;;;20.01;40.26